createdAt,value
2023-03-25T00:00:28.721Z,100.00
2023-03-25T00:02:57.102Z,100.00
2023-03-25T00:05:28.000Z,100.00
2023-03-25T00:07:56.476Z,100.00
2023-03-25T00:10:24.558Z,100.00
2023-03-25T00:12:52.996Z,100.00
2023-03-25T00:15:22.385Z,100.00
2023-03-25T00:17:50.786Z,100.00
2023-03-25T00:20:18.975Z,100.00
2023-03-25T00:22:48.435Z,100.00
2023-03-25T00:25:19.337Z,100.00
2023-03-25T00:27:51.085Z,100.00
2023-03-25T00:30:21.238Z,100.00
2023-03-25T00:32:52.932Z,100.00
2023-03-25T00:35:24.214Z,100.00
2023-03-25T00:37:57.813Z,100.00
2023-03-25T00:40:26.130Z,100.00
2023-03-25T00:42:54.220Z,100.00
2023-03-25T00:45:22.474Z,100.00
2023-03-25T00:47:52.445Z,100.00
2023-03-25T00:50:21.576Z,100.00
2023-03-25T00:52:50.237Z,100.00
2023-03-25T00:55:20.125Z,100.00
2023-03-25T00:57:48.371Z,100.00
2023-03-25T01:00:19.685Z,100.00
2023-03-25T01:02:53.916Z,100.00
2023-03-25T01:05:22.618Z,100.00
2023-03-25T01:07:51.927Z,100.00
2023-03-25T01:10:21.556Z,100.00
2023-03-25T01:12:50.125Z,100.00
2023-03-25T01:15:19.796Z,100.00
2023-03-25T01:17:48.640Z,100.00
2023-03-25T01:20:16.926Z,100.00
2023-03-25T01:22:45.119Z,100.00
2023-03-25T01:25:13.406Z,100.00
2023-03-25T01:27:42.902Z,100.00
2023-03-25T01:30:12.380Z,100.00
2023-03-25T01:32:40.869Z,100.00
2023-03-25T01:35:10.992Z,100.00
2023-03-25T01:37:39.320Z,100.00
2023-03-25T01:40:10.456Z,100.00
2023-03-25T01:42:38.659Z,100.00
2023-03-25T01:45:21.153Z,100.00
2023-03-25T01:47:52.958Z,100.00
2023-03-25T01:50:22.132Z,100.00
2023-03-25T01:52:53.661Z,100.00
2023-03-25T01:55:23.383Z,100.00
2023-03-25T01:57:56.009Z,100.00
2023-03-25T02:00:26.728Z,100.00
2023-03-25T02:02:59.426Z,100.00
2023-03-25T02:05:36.069Z,100.00
2023-03-25T02:08:09.269Z,100.00
2023-03-25T02:10:38.361Z,100.00
2023-03-25T02:13:07.600Z,100.00
2023-03-25T02:15:50.326Z,100.00
2023-03-25T02:18:39.844Z,100.00
2023-03-25T02:21:35.809Z,100.00
2023-03-25T02:24:45.935Z,100.00
2023-03-25T02:27:28.450Z,100.00
2023-03-25T02:30:26.680Z,100.00
2023-03-25T02:33:45.859Z,100.00
2023-03-25T02:36:35.493Z,100.00
2023-03-25T02:39:08.899Z,100.00
2023-03-25T02:41:44.622Z,100.00
2023-03-25T02:44:16.165Z,100.00
2023-03-25T02:46:49.765Z,100.00
2023-03-25T02:49:24.273Z,100.00
2023-03-25T02:51:57.921Z,100.00
2023-03-25T02:54:30.448Z,100.00
2023-03-25T02:57:01.048Z,100.00
2023-03-25T02:59:33.547Z,100.00
2023-03-25T03:02:06.043Z,100.00
2023-03-25T03:04:34.273Z,100.00
2023-03-25T03:07:02.594Z,100.00
2023-03-25T03:09:40.968Z,100.00
2023-03-25T03:12:18.507Z,100.00
2023-03-25T03:14:57.596Z,100.00
2023-03-25T03:17:34.023Z,100.00
2023-03-25T03:20:13.302Z,100.00
2023-03-25T03:22:45.867Z,100.00
2023-03-25T03:25:27.599Z,100.00
2023-03-25T03:27:58.443Z,100.00
2023-03-25T03:30:32.647Z,100.00
2023-03-25T03:33:10.232Z,100.00
2023-03-25T03:35:44.109Z,100.00
2023-03-25T03:38:16.438Z,100.00
2023-03-25T03:40:52.309Z,100.00
2023-03-25T03:43:27.128Z,100.00
2023-03-25T03:45:59.495Z,100.00
2023-03-25T03:48:32.513Z,100.00
2023-03-25T03:51:04.538Z,100.00
2023-03-25T03:53:36.304Z,100.00
2023-03-25T03:56:09.543Z,100.00
2023-03-25T03:58:41.946Z,100.00
2023-03-25T04:01:15.522Z,100.00
2023-03-25T04:03:50.720Z,100.00
2023-03-25T04:06:24.625Z,100.00
2023-03-25T04:08:59.855Z,100.00
2023-03-25T04:11:35.668Z,100.00
2023-03-25T04:14:05.469Z,100.00
2023-03-25T04:16:36.002Z,100.00
2023-03-25T04:19:05.467Z,100.00
2023-03-25T04:21:33.612Z,100.00
2023-03-25T04:24:01.824Z,100.00
2023-03-25T04:26:34.281Z,100.00
2023-03-25T04:29:03.827Z,100.00
2023-03-25T04:31:33.855Z,100.00
2023-03-25T04:34:03.070Z,100.00
2023-03-25T04:36:33.816Z,100.00
2023-03-25T04:39:02.331Z,100.00
2023-03-25T04:41:32.216Z,100.00
2023-03-25T04:44:00.498Z,100.00
2023-03-25T04:46:28.677Z,100.00
2023-03-25T04:48:57.167Z,100.00
2023-03-25T04:51:25.337Z,100.00
2023-03-25T04:53:53.505Z,100.00
2023-03-25T04:56:23.474Z,100.00
2023-03-25T04:58:53.452Z,100.00
2023-03-25T05:01:30.978Z,100.00
2023-03-25T05:04:05.689Z,100.00
2023-03-25T05:06:35.000Z,100.00
2023-03-25T05:09:04.897Z,100.00
2023-03-25T05:11:35.103Z,100.00
2023-03-25T05:14:04.825Z,100.00
2023-03-25T05:16:33.156Z,100.00
2023-03-25T05:19:01.333Z,100.00
2023-03-25T05:21:29.409Z,100.00
2023-03-25T05:23:58.260Z,100.00
2023-03-25T05:26:29.468Z,100.00
2023-03-25T05:29:01.630Z,100.00
2023-03-25T05:31:31.896Z,100.00
2023-03-25T05:34:00.078Z,100.00
2023-03-25T05:36:28.445Z,100.00
2023-03-25T05:38:58.317Z,100.00
2023-03-25T05:41:32.796Z,100.00
2023-03-25T05:44:01.908Z,100.00
2023-03-25T05:46:31.379Z,100.00
2023-03-25T05:49:01.011Z,100.00
2023-03-25T05:51:33.893Z,100.00
2023-03-25T05:54:02.683Z,100.00
2023-03-25T05:56:30.953Z,100.00
2023-03-25T05:58:59.293Z,100.00
2023-03-25T06:01:33.237Z,100.00
2023-03-25T06:04:03.788Z,100.00
2023-03-25T06:06:34.500Z,100.00
2023-03-25T06:09:04.393Z,100.00
2023-03-25T06:11:38.297Z,100.00
2023-03-25T06:14:07.694Z,100.00
2023-03-25T06:16:36.186Z,100.00
2023-03-25T06:19:09.506Z,100.00
2023-03-25T06:21:38.384Z,100.00
2023-03-25T06:24:07.179Z,100.00
2023-03-25T06:26:35.438Z,100.00
2023-03-25T06:29:04.290Z,100.00
2023-03-25T06:31:34.189Z,100.00
2023-03-25T06:34:03.274Z,100.00
2023-03-25T06:36:34.857Z,100.00
2023-03-25T06:39:05.203Z,100.00
2023-03-25T06:41:35.974Z,100.00
2023-03-25T06:44:27.273Z,100.00
2023-03-25T06:47:14.027Z,100.00
2023-03-25T06:49:47.314Z,100.00
2023-03-25T06:52:17.053Z,100.00
2023-03-25T06:54:45.407Z,100.00
2023-03-25T06:57:13.727Z,100.00
2023-03-25T06:59:41.976Z,100.00
2023-03-25T07:02:13.413Z,100.00
2023-03-25T07:04:44.242Z,100.00
2023-03-25T07:07:12.434Z,100.00
2023-03-25T07:09:41.994Z,100.00
2023-03-25T07:12:10.386Z,100.00
2023-03-25T07:14:41.029Z,100.00
2023-03-25T07:17:09.319Z,100.00
2023-03-25T07:19:37.568Z,100.00
2023-03-25T07:22:06.572Z,100.00
2023-03-25T07:24:34.925Z,100.00
2023-03-25T07:27:04.774Z,100.00
2023-03-25T07:29:34.512Z,100.00
2023-03-25T07:32:02.622Z,100.00
2023-03-25T07:34:31.024Z,100.00
2023-03-25T07:36:59.352Z,100.00
2023-03-25T07:39:27.690Z,100.00
2023-03-25T07:41:56.215Z,100.00
2023-03-25T07:44:46.004Z,100.00
2023-03-25T07:47:14.154Z,100.00
2023-03-25T07:49:42.992Z,100.00
2023-03-25T07:52:11.306Z,100.00
2023-03-25T07:54:39.448Z,100.00
2023-03-25T07:57:07.633Z,100.00
2023-03-25T07:59:35.865Z,100.00
2023-03-25T08:02:05.831Z,100.00
2023-03-25T08:04:34.108Z,100.00
2023-03-25T08:07:02.646Z,100.00
2023-03-25T08:09:30.837Z,100.00
2023-03-25T08:11:58.973Z,100.00
2023-03-25T08:14:27.233Z,100.00
2023-03-25T08:16:55.417Z,100.00
2023-03-25T08:19:25.035Z,94.37
2023-03-25T08:21:53.263Z,92.67
2023-03-25T08:24:21.449Z,94.43
2023-03-25T08:26:49.749Z,92.97
2023-03-25T08:29:18.347Z,93.70
2023-03-25T08:31:52.405Z,96.42
2023-03-25T08:34:22.307Z,100.00
2023-03-25T08:36:59.097Z,100.00
2023-03-25T08:39:29.886Z,100.00
2023-03-25T08:41:59.214Z,100.00
2023-03-25T08:44:27.755Z,100.00
2023-03-25T08:46:55.965Z,100.00
2023-03-25T08:49:24.301Z,100.00
2023-03-25T08:51:52.503Z,100.00
2023-03-25T08:54:22.041Z,100.00
2023-03-25T08:56:50.413Z,100.00
2023-03-25T08:59:18.694Z,100.00
2023-03-25T09:01:46.939Z,100.00
2023-03-25T09:04:15.549Z,100.00
2023-03-25T09:06:47.529Z,100.00
2023-03-25T09:09:16.542Z,100.00
2023-03-25T09:11:46.519Z,100.00
2023-03-25T09:14:14.681Z,100.00
2023-03-25T09:16:43.048Z,100.00
2023-03-25T09:19:11.462Z,100.00
2023-03-25T09:21:39.531Z,100.00
2023-03-25T09:24:09.511Z,100.00
2023-03-25T09:26:38.405Z,100.00
2023-03-25T09:29:07.913Z,100.00
2023-03-25T09:31:36.236Z,100.00
2023-03-25T09:34:04.515Z,100.00
2023-03-25T09:36:33.000Z,100.00
2023-03-25T09:39:01.397Z,100.00
2023-03-25T09:41:42.649Z,100.00
2023-03-25T09:44:18.552Z,100.00
2023-03-25T09:46:47.168Z,100.00
2023-03-25T09:49:19.984Z,100.00
2023-03-25T09:51:51.021Z,100.00
2023-03-25T09:54:26.290Z,100.00
2023-03-25T09:56:58.461Z,100.00
2023-03-25T09:59:41.521Z,100.00
2023-03-25T10:02:27.470Z,100.00
2023-03-25T10:05:11.422Z,100.00
2023-03-25T10:07:52.576Z,100.00
2023-03-25T10:10:30.194Z,99.28
2023-03-25T10:13:08.409Z,100.00
2023-03-25T10:15:45.224Z,98.73
2023-03-25T10:18:29.002Z,100.00
2023-03-25T10:21:04.768Z,99.70
2023-03-25T10:23:38.554Z,100.00
2023-03-25T10:26:13.346Z,100.00
2023-03-25T10:28:49.317Z,97.11
2023-03-25T10:31:22.155Z,98.24
2023-03-25T10:33:54.339Z,95.41
2023-03-25T10:36:28.040Z,93.74
2023-03-25T10:38:56.387Z,92.54
2023-03-25T10:41:28.732Z,94.84
2023-03-25T10:43:56.911Z,90.73
2023-03-25T10:46:32.669Z,89.62
2023-03-25T10:49:01.052Z,91.92
2023-03-25T10:51:31.513Z,91.38
2023-03-25T10:54:00.771Z,90.43
2023-03-25T10:56:32.832Z,88.98
2023-03-25T10:59:07.430Z,87.97
2023-03-25T11:01:40.174Z,87.68
2023-03-25T11:04:11.539Z,84.58
2023-03-25T11:06:41.365Z,83.80
2023-03-25T11:09:19.495Z,84.22
2023-03-25T11:11:48.576Z,83.04
2023-03-25T11:14:17.555Z,82.43
2023-03-25T11:16:53.051Z,83.08
2023-03-25T11:19:26.653Z,85.66
2023-03-25T11:21:58.409Z,82.40
2023-03-25T11:24:35.388Z,80.85
2023-03-25T11:27:04.272Z,82.84
2023-03-25T11:29:33.193Z,82.53
2023-03-25T11:32:09.550Z,81.17
2023-03-25T11:34:42.406Z,80.74
2023-03-25T11:37:19.126Z,80.73
2023-03-25T11:39:52.261Z,83.34
2023-03-25T11:42:32.752Z,82.80
2023-03-25T11:45:03.822Z,83.76
2023-03-25T11:47:37.841Z,82.13
2023-03-25T11:50:07.731Z,81.89
2023-03-25T11:52:42.616Z,82.02
2023-03-25T11:55:19.121Z,82.24
2023-03-25T11:57:49.045Z,82.54
2023-03-25T12:00:38.664Z,82.59
2023-03-25T12:03:20.831Z,79.63
2023-03-25T12:05:59.407Z,79.48
2023-03-25T12:08:31.379Z,79.63
2023-03-25T12:11:05.894Z,79.41
2023-03-25T12:13:51.469Z,79.48
2023-03-25T12:16:29.520Z,79.06
2023-03-25T12:19:17.786Z,79.24
2023-03-25T12:22:08.133Z,79.55
2023-03-25T12:24:51.837Z,79.38
2023-03-25T12:27:34.922Z,78.42
2023-03-25T12:30:13.727Z,78.63
2023-03-25T12:32:48.982Z,78.46
2023-03-25T12:35:29.727Z,77.93
2023-03-25T12:38:22.041Z,78.51
2023-03-25T12:41:05.246Z,77.44
2023-03-25T12:43:45.551Z,78.27
2023-03-25T12:46:24.951Z,77.29
2023-03-25T12:49:17.873Z,75.34
2023-03-25T12:51:59.164Z,73.66
2023-03-25T12:54:42.945Z,73.24
2023-03-25T12:57:24.925Z,72.67
2023-03-25T13:00:18.084Z,70.04
2023-03-25T13:03:12.655Z,67.82
2023-03-25T13:05:47.877Z,64.57
2023-03-25T13:08:20.513Z,63.10
2023-03-25T13:10:57.491Z,60.82
2023-03-25T13:13:28.258Z,59.57
2023-03-25T13:16:04.182Z,59.55
2023-03-25T13:18:38.126Z,59.61
2023-03-25T13:21:14.002Z,61.01
2023-03-25T13:23:49.470Z,60.19
2023-03-25T13:26:22.424Z,51.38
2023-03-25T13:28:54.366Z,44.84
2023-03-25T13:31:24.744Z,42.52
2023-03-25T13:33:57.472Z,38.88
2023-03-25T13:36:29.480Z,38.05
2023-03-25T13:39:02.839Z,35.88
2023-03-25T13:41:38.394Z,34.22
2023-03-25T13:44:13.312Z,36.16
2023-03-25T13:46:46.318Z,36.15
2023-03-25T13:49:22.053Z,37.78
2023-03-25T13:51:50.348Z,37.00
2023-03-25T13:54:25.278Z,35.68
2023-03-25T13:57:34.188Z,36.42
2023-03-25T14:00:24.940Z,35.37
2023-03-25T14:03:30.473Z,38.31
2023-03-25T14:06:31.002Z,37.33
2023-03-25T14:09:20.951Z,39.44
2023-03-25T14:11:56.396Z,39.59
2023-03-25T14:14:25.709Z,37.12
2023-03-25T14:16:58.860Z,35.74
2023-03-25T14:19:30.926Z,38.70
2023-03-25T14:21:59.940Z,39.11
2023-03-25T14:24:31.551Z,39.81
2023-03-25T14:27:05.943Z,38.88
2023-03-25T14:29:40.326Z,40.37
2023-03-25T14:32:32.563Z,38.76
2023-03-25T14:35:41.450Z,40.18
2023-03-25T14:38:21.919Z,42.62
2023-03-25T14:41:02.916Z,43.86
2023-03-25T14:43:37.828Z,46.07
2023-03-25T14:46:18.620Z,46.16
2023-03-25T14:48:51.721Z,47.37
2023-03-25T14:51:36.476Z,47.22
2023-03-25T14:54:13.544Z,47.42
2023-03-25T14:56:48.254Z,47.87
2023-03-25T14:59:19.926Z,48.43
2023-03-25T15:01:49.250Z,48.96
2023-03-25T15:04:29.921Z,48.25
2023-03-25T15:06:59.330Z,48.39
2023-03-25T15:09:30.788Z,48.96
2023-03-25T15:12:15.659Z,48.87
2023-03-25T15:14:45.300Z,48.00
2023-03-25T15:17:34.026Z,48.78
2023-03-25T15:20:31.836Z,49.44
2023-03-25T15:23:33.322Z,49.94
2023-03-25T15:26:03.385Z,50.48
2023-03-25T15:28:54.365Z,48.48
2023-03-25T15:31:41.183Z,50.80
2023-03-25T15:34:19.725Z,50.76
2023-03-25T15:37:14.288Z,48.61
2023-03-25T15:40:07.093Z,49.00
2023-03-25T15:42:57.139Z,47.26
2023-03-25T15:45:53.520Z,47.32
2023-03-25T15:48:35.680Z,47.54
2023-03-25T15:51:21.589Z,46.83
2023-03-25T15:54:12.930Z,49.10
2023-03-25T15:56:43.815Z,48.52
2023-03-25T15:59:26.195Z,49.08
2023-03-25T16:01:55.809Z,47.26
2023-03-25T16:04:33.737Z,50.37
2023-03-25T16:07:04.950Z,51.67
2023-03-25T16:09:35.336Z,51.14
2023-03-25T16:12:04.546Z,51.51
2023-03-25T16:14:34.753Z,51.24
2023-03-25T16:17:06.604Z,51.82
2023-03-25T16:19:41.529Z,53.27
2023-03-25T16:22:20.419Z,52.47
2023-03-25T16:24:51.350Z,54.78
2023-03-25T16:27:26.315Z,54.80
2023-03-25T16:29:56.898Z,55.54
2023-03-25T16:32:27.157Z,55.61
2023-03-25T16:34:57.879Z,57.51
2023-03-25T16:37:26.786Z,57.27
2023-03-25T16:39:56.649Z,57.56
2023-03-25T16:42:28.910Z,57.45
2023-03-25T16:44:57.067Z,59.38
2023-03-25T16:47:26.014Z,60.62
2023-03-25T16:50:01.493Z,60.44
2023-03-25T16:52:34.154Z,61.83
2023-03-25T16:55:28.883Z,62.70
2023-03-25T16:57:57.145Z,65.03
2023-03-25T17:00:26.809Z,64.23
2023-03-25T17:02:57.092Z,64.56
2023-03-25T17:05:29.879Z,66.09
2023-03-25T17:08:01.976Z,65.33
2023-03-25T17:10:33.313Z,64.52
2023-03-25T17:13:09.004Z,65.12
2023-03-25T17:15:37.829Z,66.72
2023-03-25T17:18:14.641Z,72.83
2023-03-25T17:20:46.111Z,82.27
2023-03-25T17:23:22.934Z,88.09
2023-03-25T17:25:54.910Z,89.51
2023-03-25T17:28:33.476Z,84.01
2023-03-25T17:31:18.790Z,87.00
2023-03-25T17:33:52.873Z,90.58
2023-03-25T17:36:23.473Z,97.92
2023-03-25T17:38:56.408Z,100.00
2023-03-25T17:41:30.338Z,100.00
2023-03-25T17:43:59.797Z,100.00
2023-03-25T17:46:31.262Z,100.00
2023-03-25T17:49:00.754Z,100.00
2023-03-25T17:51:31.875Z,100.00
2023-03-25T17:54:01.243Z,100.00
2023-03-25T17:56:30.421Z,100.00
2023-03-25T17:59:01.704Z,100.00
2023-03-25T18:01:31.435Z,100.00
2023-03-25T18:03:59.863Z,100.00
2023-03-25T18:06:29.122Z,100.00
2023-03-25T18:08:59.934Z,100.00
2023-03-25T18:11:29.932Z,100.00
2023-03-25T18:13:59.376Z,100.00
2023-03-25T18:16:28.971Z,100.00
2023-03-25T18:18:58.197Z,100.00
2023-03-25T18:21:27.435Z,100.00
2023-03-25T18:23:56.129Z,100.00
2023-03-25T18:26:26.807Z,100.00
2023-03-25T18:28:56.351Z,100.00
2023-03-25T18:31:25.610Z,100.00
2023-03-25T18:33:56.242Z,100.00
2023-03-25T18:36:26.485Z,100.00
2023-03-25T18:38:57.082Z,100.00
2023-03-25T18:41:32.072Z,100.00
2023-03-25T18:44:01.704Z,100.00
2023-03-25T18:46:31.782Z,100.00
2023-03-25T18:49:03.251Z,100.00
2023-03-25T18:51:32.321Z,100.00
2023-03-25T18:54:06.083Z,100.00
2023-03-25T18:56:43.441Z,100.00
2023-03-25T18:59:16.966Z,100.00
2023-03-25T19:01:46.469Z,100.00
2023-03-25T19:04:15.744Z,100.00
2023-03-25T19:06:44.708Z,100.00
2023-03-25T19:09:24.337Z,100.00
2023-03-25T19:11:55.207Z,100.00
2023-03-25T19:14:24.859Z,100.00
2023-03-25T19:17:03.712Z,100.00
2023-03-25T19:19:34.238Z,100.00
2023-03-25T19:22:04.212Z,100.00
2023-03-25T19:24:33.821Z,100.00
2023-03-25T19:27:05.968Z,100.00
2023-03-25T19:29:35.621Z,100.00
2023-03-25T19:32:04.766Z,100.00
2023-03-25T19:34:36.069Z,100.00
2023-03-25T19:37:05.556Z,100.00
2023-03-25T19:39:35.589Z,100.00
2023-03-25T19:42:10.205Z,100.00
2023-03-25T19:44:39.786Z,100.00
2023-03-25T19:47:09.836Z,100.00
2023-03-25T19:49:40.452Z,100.00
2023-03-25T19:52:10.308Z,100.00
2023-03-25T19:54:41.684Z,100.00
2023-03-25T19:57:12.820Z,100.00
2023-03-25T19:59:44.906Z,100.00
2023-03-25T20:02:16.087Z,100.00
2023-03-25T20:04:47.037Z,100.00
2023-03-25T20:07:16.542Z,100.00
2023-03-25T20:09:46.186Z,100.00
2023-03-25T20:12:17.055Z,100.00
2023-03-25T20:14:47.175Z,100.00
2023-03-25T20:17:16.579Z,100.00
2023-03-25T20:19:45.761Z,100.00
2023-03-25T20:22:24.184Z,100.00
2023-03-25T20:24:56.095Z,100.00
2023-03-25T20:27:27.950Z,100.00
2023-03-25T20:29:58.594Z,100.00
2023-03-25T20:32:39.775Z,100.00
2023-03-25T20:35:11.936Z,100.00
2023-03-25T20:37:42.655Z,100.00
2023-03-25T20:40:16.392Z,100.00
2023-03-25T20:42:50.549Z,100.00
2023-03-25T20:45:29.722Z,100.00
2023-03-25T20:47:59.981Z,100.00
2023-03-25T20:50:30.474Z,100.00
2023-03-25T20:52:59.572Z,100.00
2023-03-25T20:55:29.831Z,100.00
2023-03-25T20:58:00.626Z,100.00
2023-03-25T21:00:30.884Z,100.00
2023-03-25T21:03:00.224Z,100.00
2023-03-25T21:05:32.330Z,100.00
2023-03-25T21:08:01.922Z,100.00
2023-03-25T21:10:31.104Z,100.00
2023-03-25T21:13:01.145Z,100.00
2023-03-25T21:15:31.607Z,100.00
2023-03-25T21:18:00.658Z,100.00
2023-03-25T21:20:30.153Z,100.00
2023-03-25T21:22:59.609Z,100.00
2023-03-25T21:25:38.202Z,100.00
2023-03-25T21:28:09.147Z,100.00
2023-03-25T21:30:37.534Z,100.00
2023-03-25T21:33:06.508Z,100.00
2023-03-25T21:35:35.902Z,100.00
2023-03-25T21:38:07.554Z,100.00
2023-03-25T21:40:40.123Z,100.00
2023-03-25T21:43:10.688Z,100.00
2023-03-25T21:45:41.129Z,100.00
2023-03-25T21:48:10.587Z,100.00
2023-03-25T21:50:40.173Z,100.00
2023-03-25T21:53:13.711Z,100.00
2023-03-25T21:55:44.844Z,100.00
2023-03-25T21:58:14.822Z,100.00
2023-03-25T22:00:43.147Z,100.00
2023-03-25T22:03:12.224Z,100.00
2023-03-25T22:05:40.838Z,100.00
2023-03-25T22:08:09.020Z,100.00
2023-03-25T22:10:37.429Z,100.00
2023-03-25T22:13:06.120Z,100.00
2023-03-25T22:15:36.286Z,100.00
2023-03-25T22:18:04.779Z,100.00
2023-03-25T22:20:36.427Z,100.00
2023-03-25T22:23:05.424Z,100.00
2023-03-25T22:25:34.436Z,100.00
2023-03-25T22:28:02.888Z,100.00
2023-03-25T22:30:31.471Z,100.00
2023-03-25T22:33:06.884Z,100.00
2023-03-25T22:35:38.671Z,100.00
2023-03-25T22:38:07.432Z,100.00
2023-03-25T22:40:38.976Z,100.00
2023-03-25T22:43:10.929Z,100.00
2023-03-25T22:45:39.675Z,100.00
2023-03-25T22:48:09.574Z,100.00
2023-03-25T22:50:37.743Z,100.00
2023-03-25T22:53:05.871Z,100.00
2023-03-25T22:55:35.216Z,100.00
2023-03-25T22:58:03.346Z,100.00
2023-03-25T23:00:31.464Z,100.00
2023-03-25T23:02:59.697Z,100.00
2023-03-25T23:05:29.377Z,100.00
2023-03-25T23:07:57.514Z,100.00
2023-03-25T23:10:25.699Z,100.00
2023-03-25T23:12:53.929Z,100.00
2023-03-25T23:15:22.213Z,100.00
2023-03-25T23:17:50.632Z,100.00
2023-03-25T23:20:19.091Z,100.00
2023-03-25T23:22:48.572Z,100.00
2023-03-25T23:25:16.758Z,100.00
2023-03-25T23:27:45.335Z,100.00
2023-03-25T23:30:13.937Z,100.00
2023-03-25T23:32:42.353Z,100.00
2023-03-25T23:35:11.073Z,100.00
2023-03-25T23:37:41.591Z,100.00
2023-03-25T23:40:12.635Z,100.00
2023-03-25T23:42:40.734Z,100.00
2023-03-25T23:45:10.890Z,100.00
2023-03-25T23:47:39.121Z,100.00
2023-03-25T23:50:08.348Z,100.00
2023-03-25T23:52:36.494Z,100.00
2023-03-25T23:55:04.990Z,100.00
2023-03-25T23:57:34.577Z,100.00
